sensor_id;sensor_type;location;lat;lon;timestamp;temperature;humidity
25991;DHT22;13779;-33.886;151.198;2022-07-06T00:02:07;15.80;99.90
25991;DHT22;13779;-33.886;151.198;2022-07-06T00:04:37;15.80;99.90
25991;DHT22;13779;-33.886;151.198;2022-07-06T00:07:07;15.70;99.90
25991;DHT22;13779;-33.886;151.198;2022-07-06T00:09:38;15.70;99.90
25991;DHT22;13779;-33.886;151.198;2022-07-06T00:12:08;15.70;99.90
25991;DHT22;13779;-33.886;151.198;2022-07-06T00:14:38;15.70;99.90
25991;DHT22;13779;-33.886;151.198;2022-07-06T00:17:08;15.70;99.90
25991;DHT22;13779;-33.886;151.198;2022-07-06T00:19:39;15.70;99.90
25991;DHT22;13779;-33.886;151.198;2022-07-06T00:22:09;15.70;99.90
25991;DHT22;13779;-33.886;151.198;2022-07-06T00:24:39;15.70;99.90
25991;DHT22;13779;-33.886;151.198;2022-07-06T00:27:09;15.70;99.90
25991;DHT22;13779;-33.886;151.198;2022-07-06T00:29:39;15.70;99.90
25991;DHT22;13779;-33.886;151.198;2022-07-06T00:32:12;15.70;99.90
25991;DHT22;13779;-33.886;151.198;2022-07-06T00:34:43;15.70;99.90
25991;DHT22;13779;-33.886;151.198;2022-07-06T00:37:13;15.70;99.90
25991;DHT22;13779;-33.886;151.198;2022-07-06T00:39:44;15.70;99.90
25991;DHT22;13779;-33.886;151.198;2022-07-06T00:42:14;15.80;99.90
25991;DHT22;13779;-33.886;151.198;2022-07-06T00:44:45;15.80;99.90
25991;DHT22;13779;-33.886;151.198;2022-07-06T00:47:15;15.80;99.90
25991;DHT22;13779;-33.886;151.198;2022-07-06T00:49:45;15.80;99.90
25991;DHT22;13779;-33.886;151.198;2022-07-06T00:52:33;15.90;99.90
25991;DHT22;13779;-33.886;151.198;2022-07-06T00:55:03;15.90;99.90
25991;DHT22;13779;-33.886;151.198;2022-07-06T00:57:34;15.90;99.90
25991;DHT22;13779;-33.886;151.198;2022-07-06T01:00:06;15.80;99.90
25991;DHT22;13779;-33.886;151.198;2022-07-06T01:02:37;15.80;99.90
25991;DHT22;13779;-33.886;151.198;2022-07-06T01:05:13;15.80;99.90
25991;DHT22;13779;-33.886;151.198;2022-07-06T01:07:46;15.80;99.90
25991;DHT22;13779;-33.886;151.198;2022-07-06T01:10:19;15.80;99.90
25991;DHT22;13779;-33.886;151.198;2022-07-06T01:12:49;15.70;99.90
25991;DHT22;13779;-33.886;151.198;2022-07-06T01:15:23;15.70;99.90
25991;DHT22;13779;-33.886;151.198;2022-07-06T01:17:54;15.80;99.90
25991;DHT22;13779;-33.886;151.198;2022-07-06T01:20:26;15.80;99.90
25991;DHT22;13779;-33.886;151.198;2022-07-06T01:22:59;15.80;99.90
25991;DHT22;13779;-33.886;151.198;2022-07-06T01:25:30;15.90;99.90
25991;DHT22;13779;-33.886;151.198;2022-07-06T01:28:03;15.90;99.90
25991;DHT22;13779;-33.886;151.198;2022-07-06T01:30:34;15.90;99.90
25991;DHT22;13779;-33.886;151.198;2022-07-06T01:33:04;15.90;99.90
25991;DHT22;13779;-33.886;151.198;2022-07-06T01:35:36;15.90;99.90
25991;DHT22;13779;-33.886;151.198;2022-07-06T01:38:08;15.90;99.90
25991;DHT22;13779;-33.886;151.198;2022-07-06T01:40:39;15.90;99.90
25991;DHT22;13779;-33.886;151.198;2022-07-06T01:43:09;15.80;99.90
25991;DHT22;13779;-33.886;151.198;2022-07-06T01:45:40;15.80;99.90
25991;DHT22;13779;-33.886;151.198;2022-07-06T01:48:11;15.80;99.90
25991;DHT22;13779;-33.886;151.198;2022-07-06T01:50:41;15.80;99.90
25991;DHT22;13779;-33.886;151.198;2022-07-06T01:53:11;15.90;99.90
25991;DHT22;13779;-33.886;151.198;2022-07-06T01:55:41;15.90;99.90
25991;DHT22;13779;-33.886;151.198;2022-07-06T01:58:11;15.90;99.90
25991;DHT22;13779;-33.886;151.198;2022-07-06T02:00:42;15.90;99.90
25991;DHT22;13779;-33.886;151.198;2022-07-06T02:03:12;15.90;99.90
25991;DHT22;13779;-33.886;151.198;2022-07-06T02:05:43;15.90;99.90
25991;DHT22;13779;-33.886;151.198;2022-07-06T02:08:13;15.80;99.90
25991;DHT22;13779;-33.886;151.198;2022-07-06T02:10:43;15.80;99.90
25991;DHT22;13779;-33.886;151.198;2022-07-06T02:13:13;15.70;99.90
25991;DHT22;13779;-33.886;151.198;2022-07-06T02:15:43;15.70;99.90
25991;DHT22;13779;-33.886;151.198;2022-07-06T02:18:13;15.80;99.90
25991;DHT22;13779;-33.886;151.198;2022-07-06T02:20:44;15.80;99.90
25991;DHT22;13779;-33.886;151.198;2022-07-06T02:23:14;15.80;99.90
25991;DHT22;13779;-33.886;151.198;2022-07-06T02:25:44;15.90;99.90
25991;DHT22;13779;-33.886;151.198;2022-07-06T02:28:14;15.90;99.90
25991;DHT22;13779;-33.886;151.198;2022-07-06T02:30:44;16.00;99.90
25991;DHT22;13779;-33.886;151.198;2022-07-06T02:33:14;16.00;99.90
25991;DHT22;13779;-33.886;151.198;2022-07-06T02:35:44;16.00;99.90
25991;DHT22;13779;-33.886;151.198;2022-07-06T02:38:15;16.00;99.90
25991;DHT22;13779;-33.886;151.198;2022-07-06T02:40:45;16.00;99.90
25991;DHT22;13779;-33.886;151.198;2022-07-06T02:43:15;16.00;99.90
25991;DHT22;13779;-33.886;151.198;2022-07-06T02:45:45;16.00;99.90
25991;DHT22;13779;-33.886;151.198;2022-07-06T02:48:15;16.00;99.90
25991;DHT22;13779;-33.886;151.198;2022-07-06T02:50:46;16.10;99.90
25991;DHT22;13779;-33.886;151.198;2022-07-06T02:53:18;16.00;99.90
25991;DHT22;13779;-33.886;151.198;2022-07-06T02:55:49;16.00;99.90
25991;DHT22;13779;-33.886;151.198;2022-07-06T02:58:19;15.90;99.90
25991;DHT22;13779;-33.886;151.198;2022-07-06T03:00:49;15.90;99.90
25991;DHT22;13779;-33.886;151.198;2022-07-06T03:03:19;15.90;99.90
25991;DHT22;13779;-33.886;151.198;2022-07-06T03:05:49;15.90;99.90
25991;DHT22;13779;-33.886;151.198;2022-07-06T03:08:20;15.90;99.90
25991;DHT22;13779;-33.886;151.198;2022-07-06T03:10:50;15.90;99.90
25991;DHT22;13779;-33.886;151.198;2022-07-06T03:13:20;16.00;99.90
25991;DHT22;13779;-33.886;151.198;2022-07-06T03:15:50;16.00;99.90
25991;DHT22;13779;-33.886;151.198;2022-07-06T03:18:21;16.00;99.90
25991;DHT22;13779;-33.886;151.198;2022-07-06T03:20:52;16.00;99.90
25991;DHT22;13779;-33.886;151.198;2022-07-06T03:23:22;16.00;99.90
25991;DHT22;13779;-33.886;151.198;2022-07-06T03:25:52;16.00;99.90
25991;DHT22;13779;-33.886;151.198;2022-07-06T03:28:22;16.00;99.90
25991;DHT22;13779;-33.886;151.198;2022-07-06T03:30:53;16.00;99.90
25991;DHT22;13779;-33.886;151.198;2022-07-06T03:33:23;16.00;99.90
25991;DHT22;13779;-33.886;151.198;2022-07-06T03:35:53;16.00;99.90
25991;DHT22;13779;-33.886;151.198;2022-07-06T03:38:23;16.00;99.90
25991;DHT22;13779;-33.886;151.198;2022-07-06T03:40:53;16.00;99.90
25991;DHT22;13779;-33.886;151.198;2022-07-06T03:43:23;16.00;99.90
25991;DHT22;13779;-33.886;151.198;2022-07-06T03:45:53;16.00;99.90
25991;DHT22;13779;-33.886;151.198;2022-07-06T03:48:23;15.90;99.90
25991;DHT22;13779;-33.886;151.198;2022-07-06T03:50:54;15.90;99.90
25991;DHT22;13779;-33.886;151.198;2022-07-06T03:53:25;16.00;99.90
25991;DHT22;13779;-33.886;151.198;2022-07-06T03:55:56;16.00;99.90
25991;DHT22;13779;-33.886;151.198;2022-07-06T03:58:44;16.00;99.90
25991;DHT22;13779;-33.886;151.198;2022-07-06T04:01:15;16.00;99.90
25991;DHT22;13779;-33.886;151.198;2022-07-06T04:03:45;16.00;99.90
25991;DHT22;13779;-33.886;151.198;2022-07-06T04:06:16;16.00;99.90
25991;DHT22;13779;-33.886;151.198;2022-07-06T04:08:47;16.00;99.90
25991;DHT22;13779;-33.886;151.198;2022-07-06T04:11:17;16.00;99.90
25991;DHT22;13779;-33.886;151.198;2022-07-06T04:13:48;16.00;99.90
25991;DHT22;13779;-33.886;151.198;2022-07-06T04:16:18;15.90;99.90
25991;DHT22;13779;-33.886;151.198;2022-07-06T04:18:49;15.90;99.90
25991;DHT22;13779;-33.886;151.198;2022-07-06T04:21:19;15.90;99.90
25991;DHT22;13779;-33.886;151.198;2022-07-06T04:23:50;15.90;99.90
25991;DHT22;13779;-33.886;151.198;2022-07-06T04:26:20;15.90;99.90
25991;DHT22;13779;-33.886;151.198;2022-07-06T04:28:51;15.90;99.90
25991;DHT22;13779;-33.886;151.198;2022-07-06T04:31:22;15.90;99.90
25991;DHT22;13779;-33.886;151.198;2022-07-06T04:33:52;15.90;99.90
25991;DHT22;13779;-33.886;151.198;2022-07-06T04:36:23;16.00;99.90
25991;DHT22;13779;-33.886;151.198;2022-07-06T04:38:53;16.00;99.90
25991;DHT22;13779;-33.886;151.198;2022-07-06T04:41:24;16.00;99.90
25991;DHT22;13779;-33.886;151.198;2022-07-06T04:43:54;16.00;99.90
25991;DHT22;13779;-33.886;151.198;2022-07-06T04:46:25;16.00;99.90
25991;DHT22;13779;-33.886;151.198;2022-07-06T04:48:56;16.00;99.90
25991;DHT22;13779;-33.886;151.198;2022-07-06T04:51:27;16.00;99.90
25991;DHT22;13779;-33.886;151.198;2022-07-06T04:53:58;16.00;99.90
25991;DHT22;13779;-33.886;151.198;2022-07-06T04:56:29;16.00;99.90
25991;DHT22;13779;-33.886;151.198;2022-07-06T04:58:59;15.90;99.90
25991;DHT22;13779;-33.886;151.198;2022-07-06T05:01:30;15.90;99.90
25991;DHT22;13779;-33.886;151.198;2022-07-06T05:04:00;15.90;99.90
25991;DHT22;13779;-33.886;151.198;2022-07-06T05:06:31;15.90;99.90
25991;DHT22;13779;-33.886;151.198;2022-07-06T05:09:02;15.80;99.90
25991;DHT22;13779;-33.886;151.198;2022-07-06T05:11:32;15.80;99.90
25991;DHT22;13779;-33.886;151.198;2022-07-06T05:14:03;15.80;99.90
25991;DHT22;13779;-33.886;151.198;2022-07-06T05:16:34;15.70;99.90
25991;DHT22;13779;-33.886;151.198;2022-07-06T05:19:04;15.70;99.90
25991;DHT22;13779;-33.886;151.198;2022-07-06T05:21:35;15.70;99.90
25991;DHT22;13779;-33.886;151.198;2022-07-06T05:24:06;15.70;99.90
25991;DHT22;13779;-33.886;151.198;2022-07-06T05:26:36;15.70;99.90
25991;DHT22;13779;-33.886;151.198;2022-07-06T05:29:07;15.70;99.90
25991;DHT22;13779;-33.886;151.198;2022-07-06T05:31:37;15.70;99.90
25991;DHT22;13779;-33.886;151.198;2022-07-06T05:34:08;15.70;99.90
25991;DHT22;13779;-33.886;151.198;2022-07-06T05:36:38;15.70;99.90
25991;DHT22;13779;-33.886;151.198;2022-07-06T05:39:09;15.70;99.90
25991;DHT22;13779;-33.886;151.198;2022-07-06T05:41:39;15.70;99.90
25991;DHT22;13779;-33.886;151.198;2022-07-06T05:44:10;15.70;99.90
25991;DHT22;13779;-33.886;151.198;2022-07-06T05:46:41;15.70;99.90
25991;DHT22;13779;-33.886;151.198;2022-07-06T05:49:11;15.70;99.90
25991;DHT22;13779;-33.886;151.198;2022-07-06T05:52:01;15.70;99.90
25991;DHT22;13779;-33.886;151.198;2022-07-06T05:54:31;15.70;99.90
25991;DHT22;13779;-33.886;151.198;2022-07-06T05:57:01;15.70;99.90
25991;DHT22;13779;-33.886;151.198;2022-07-06T05:59:31;15.70;99.90
25991;DHT22;13779;-33.886;151.198;2022-07-06T06:02:01;15.80;99.90
25991;DHT22;13779;-33.886;151.198;2022-07-06T06:04:31;15.80;99.90
25991;DHT22;13779;-33.886;151.198;2022-07-06T06:07:01;15.80;99.90
25991;DHT22;13779;-33.886;151.198;2022-07-06T06:09:31;15.90;99.90
25991;DHT22;13779;-33.886;151.198;2022-07-06T06:12:02;15.80;99.90
25991;DHT22;13779;-33.886;151.198;2022-07-06T06:14:32;15.80;99.90
25991;DHT22;13779;-33.886;151.198;2022-07-06T06:17:02;15.80;99.90
25991;DHT22;13779;-33.886;151.198;2022-07-06T06:19:38;15.90;99.90
25991;DHT22;13779;-33.886;151.198;2022-07-06T06:22:08;15.90;99.90
25991;DHT22;13779;-33.886;151.198;2022-07-06T06:24:38;15.90;99.90
25991;DHT22;13779;-33.886;151.198;2022-07-06T06:27:08;15.90;99.90
25991;DHT22;13779;-33.886;151.198;2022-07-06T06:29:38;15.90;99.90
25991;DHT22;13779;-33.886;151.198;2022-07-06T06:32:11;15.90;99.90
25991;DHT22;13779;-33.886;151.198;2022-07-06T06:34:41;15.90;99.90
25991;DHT22;13779;-33.886;151.198;2022-07-06T06:37:11;15.90;99.90
25991;DHT22;13779;-33.886;151.198;2022-07-06T06:39:41;15.90;99.90
25991;DHT22;13779;-33.886;151.198;2022-07-06T06:42:11;15.90;99.90
25991;DHT22;13779;-33.886;151.198;2022-07-06T06:44:41;15.90;99.90
25991;DHT22;13779;-33.886;151.198;2022-07-06T06:47:11;15.90;99.90
25991;DHT22;13779;-33.886;151.198;2022-07-06T06:49:41;15.80;99.90
25991;DHT22;13779;-33.886;151.198;2022-07-06T06:52:11;15.80;99.90
25991;DHT22;13779;-33.886;151.198;2022-07-06T06:55:03;15.90;99.90
25991;DHT22;13779;-33.886;151.198;2022-07-06T06:57:33;15.90;99.90
25991;DHT22;13779;-33.886;151.198;2022-07-06T07:00:07;15.90;99.90
25991;DHT22;13779;-33.886;151.198;2022-07-06T07:02:37;15.90;99.90
25991;DHT22;13779;-33.886;151.198;2022-07-06T07:05:08;15.90;99.90
25991;DHT22;13779;-33.886;151.198;2022-07-06T07:07:38;15.90;99.90
25991;DHT22;13779;-33.886;151.198;2022-07-06T07:10:08;15.90;99.90
25991;DHT22;13779;-33.886;151.198;2022-07-06T07:12:48;15.90;99.90
25991;DHT22;13779;-33.886;151.198;2022-07-06T07:15:18;15.90;99.90
25991;DHT22;13779;-33.886;151.198;2022-07-06T07:17:48;15.90;99.90
25991;DHT22;13779;-33.886;151.198;2022-07-06T07:20:19;15.90;99.90
25991;DHT22;13779;-33.886;151.198;2022-07-06T07:22:49;15.80;99.90
25991;DHT22;13779;-33.886;151.198;2022-07-06T07:25:19;15.80;99.90
25991;DHT22;13779;-33.886;151.198;2022-07-06T07:27:49;15.80;99.90
25991;DHT22;13779;-33.886;151.198;2022-07-06T07:30:21;15.80;99.90
25991;DHT22;13779;-33.886;151.198;2022-07-06T07:32:51;15.70;99.90
25991;DHT22;13779;-33.886;151.198;2022-07-06T07:35:21;15.70;99.90
25991;DHT22;13779;-33.886;151.198;2022-07-06T07:37:52;15.70;99.90
25991;DHT22;13779;-33.886;151.198;2022-07-06T07:40:22;15.70;99.90
25991;DHT22;13779;-33.886;151.198;2022-07-06T07:42:53;15.70;99.90
25991;DHT22;13779;-33.886;151.198;2022-07-06T07:45:23;15.70;99.90
25991;DHT22;13779;-33.886;151.198;2022-07-06T07:47:53;15.70;99.90
25991;DHT22;13779;-33.886;151.198;2022-07-06T07:50:24;15.70;99.90
25991;DHT22;13779;-33.886;151.198;2022-07-06T07:52:56;15.70;99.90
25991;DHT22;13779;-33.886;151.198;2022-07-06T07:55:27;15.70;99.90
25991;DHT22;13779;-33.886;151.198;2022-07-06T07:58:07;15.70;99.90
25991;DHT22;13779;-33.886;151.198;2022-07-06T08:00:38;15.70;99.90
25991;DHT22;13779;-33.886;151.198;2022-07-06T08:03:08;15.70;99.90
25991;DHT22;13779;-33.886;151.198;2022-07-06T08:05:38;15.70;99.90
25991;DHT22;13779;-33.886;151.198;2022-07-06T08:08:08;15.60;99.90
25991;DHT22;13779;-33.886;151.198;2022-07-06T08:10:38;15.60;99.90
25991;DHT22;13779;-33.886;151.198;2022-07-06T08:13:28;15.60;99.90
25991;DHT22;13779;-33.886;151.198;2022-07-06T08:15:58;15.60;99.90
25991;DHT22;13779;-33.886;151.198;2022-07-06T08:18:29;15.60;99.90
25991;DHT22;13779;-33.886;151.198;2022-07-06T08:21:00;15.60;99.90
25991;DHT22;13779;-33.886;151.198;2022-07-06T08:23:50;15.50;99.90
25991;DHT22;13779;-33.886;151.198;2022-07-06T08:26:20;15.50;99.90
25991;DHT22;13779;-33.886;151.198;2022-07-06T08:28:51;15.50;99.90
25991;DHT22;13779;-33.886;151.198;2022-07-06T08:31:21;15.60;99.90
25991;DHT22;13779;-33.886;151.198;2022-07-06T08:34:12;15.60;99.90
25991;DHT22;13779;-33.886;151.198;2022-07-06T08:36:42;15.60;99.90
25991;DHT22;13779;-33.886;151.198;2022-07-06T08:39:12;15.70;99.90
25991;DHT22;13779;-33.886;151.198;2022-07-06T08:41:42;15.70;99.90
25991;DHT22;13779;-33.886;151.198;2022-07-06T08:44:17;15.70;99.90
25991;DHT22;13779;-33.886;151.198;2022-07-06T08:46:49;15.70;99.90
25991;DHT22;13779;-33.886;151.198;2022-07-06T08:49:22;15.70;99.90
25991;DHT22;13779;-33.886;151.198;2022-07-06T08:51:53;15.70;99.90
25991;DHT22;13779;-33.886;151.198;2022-07-06T08:54:26;15.60;99.90
25991;DHT22;13779;-33.886;151.198;2022-07-06T08:56:56;15.70;99.90
25991;DHT22;13779;-33.886;151.198;2022-07-06T08:59:29;15.60;99.90
25991;DHT22;13779;-33.886;151.198;2022-07-06T09:02:00;15.60;99.90
25991;DHT22;13779;-33.886;151.198;2022-07-06T09:04:33;15.60;99.90
25991;DHT22;13779;-33.886;151.198;2022-07-06T09:07:05;15.60;99.90
25991;DHT22;13779;-33.886;151.198;2022-07-06T09:09:37;15.60;99.90
25991;DHT22;13779;-33.886;151.198;2022-07-06T09:12:12;15.60;99.90
25991;DHT22;13779;-33.886;151.198;2022-07-06T09:14:43;15.60;99.90
25991;DHT22;13779;-33.886;151.198;2022-07-06T09:17:14;15.60;99.90
25991;DHT22;13779;-33.886;151.198;2022-07-06T09:19:45;15.60;99.90
25991;DHT22;13779;-33.886;151.198;2022-07-06T09:22:32;15.60;99.90
25991;DHT22;13779;-33.886;151.198;2022-07-06T09:25:10;15.60;99.90
25991;DHT22;13779;-33.886;151.198;2022-07-06T09:27:42;15.60;99.90
25991;DHT22;13779;-33.886;151.198;2022-07-06T09:30:13;15.60;99.90
25991;DHT22;13779;-33.886;151.198;2022-07-06T09:32:48;15.60;99.90
25991;DHT22;13779;-33.886;151.198;2022-07-06T09:35:30;15.60;99.90
25991;DHT22;13779;-33.886;151.198;2022-07-06T09:40:34;15.60;99.90
25991;DHT22;13779;-33.886;151.198;2022-07-06T09:43:24;15.60;99.90
25991;DHT22;13779;-33.886;151.198;2022-07-06T09:45:56;15.60;99.90
25991;DHT22;13779;-33.886;151.198;2022-07-06T09:48:28;15.60;99.90
25991;DHT22;13779;-33.886;151.198;2022-07-06T09:51:02;15.60;99.90
25991;DHT22;13779;-33.886;151.198;2022-07-06T09:53:34;15.70;99.90
25991;DHT22;13779;-33.886;151.198;2022-07-06T09:56:05;15.70;99.90
25991;DHT22;13779;-33.886;151.198;2022-07-06T09:58:38;15.60;99.90
25991;DHT22;13779;-33.886;151.198;2022-07-06T10:01:29;15.60;99.90
25991;DHT22;13779;-33.886;151.198;2022-07-06T10:04:00;15.60;99.90
25991;DHT22;13779;-33.886;151.198;2022-07-06T10:06:30;15.60;99.90
25991;DHT22;13779;-33.886;151.198;2022-07-06T10:09:02;15.60;99.90
25991;DHT22;13779;-33.886;151.198;2022-07-06T10:11:52;15.60;99.90
25991;DHT22;13779;-33.886;151.198;2022-07-06T10:14:25;15.70;99.90
25991;DHT22;13779;-33.886;151.198;2022-07-06T10:16:59;15.60;99.90
25991;DHT22;13779;-33.886;151.198;2022-07-06T10:19:31;15.70;99.90
25991;DHT22;13779;-33.886;151.198;2022-07-06T10:22:03;15.70;99.90
25991;DHT22;13779;-33.886;151.198;2022-07-06T10:24:34;15.70;99.90
25991;DHT22;13779;-33.886;151.198;2022-07-06T10:27:11;15.70;99.90
25991;DHT22;13779;-33.886;151.198;2022-07-06T10:29:42;15.70;99.90
25991;DHT22;13779;-33.886;151.198;2022-07-06T10:32:12;15.70;99.90
25991;DHT22;13779;-33.886;151.198;2022-07-06T10:34:43;15.70;99.90
25991;DHT22;13779;-33.886;151.198;2022-07-06T10:37:27;15.70;99.90
25991;DHT22;13779;-33.886;151.198;2022-07-06T10:39:58;15.70;99.90
25991;DHT22;13779;-33.886;151.198;2022-07-06T10:42:49;15.70;99.90
25991;DHT22;13779;-33.886;151.198;2022-07-06T10:50:56;15.60;99.90
25991;DHT22;13779;-33.886;151.198;2022-07-06T10:53:33;15.60;99.90
25991;DHT22;13779;-33.886;151.198;2022-07-06T10:56:08;15.60;99.90
25991;DHT22;13779;-33.886;151.198;2022-07-06T11:01:16;15.60;99.90
25991;DHT22;13779;-33.886;151.198;2022-07-06T11:06:27;15.70;99.90
25991;DHT22;13779;-33.886;151.198;2022-07-06T11:09:06;15.60;99.90
25991;DHT22;13779;-33.886;151.198;2022-07-06T11:11:38;15.70;99.90
25991;DHT22;13779;-33.886;151.198;2022-07-06T11:14:11;15.70;99.90
25991;DHT22;13779;-33.886;151.198;2022-07-06T11:19:21;15.60;99.90
25991;DHT22;13779;-33.886;151.198;2022-07-06T11:21:57;15.60;99.90
25991;DHT22;13779;-33.886;151.198;2022-07-06T11:24:31;15.60;99.90
25991;DHT22;13779;-33.886;151.198;2022-07-06T11:27:02;15.60;99.90
25991;DHT22;13779;-33.886;151.198;2022-07-06T11:29:34;15.60;99.90
25991;DHT22;13779;-33.886;151.198;2022-07-06T11:32:08;15.60;99.90
25991;DHT22;13779;-33.886;151.198;2022-07-06T11:34:42;15.60;99.90
25991;DHT22;13779;-33.886;151.198;2022-07-06T11:37:16;15.60;99.90
25991;DHT22;13779;-33.886;151.198;2022-07-06T11:39:50;15.60;99.90
25991;DHT22;13779;-33.886;151.198;2022-07-06T11:42:20;15.60;99.90
25991;DHT22;13779;-33.886;151.198;2022-07-06T11:44:54;15.60;99.90
25991;DHT22;13779;-33.886;151.198;2022-07-06T11:47:31;15.60;99.90
25991;DHT22;13779;-33.886;151.198;2022-07-06T11:50:01;15.60;99.90
25991;DHT22;13779;-33.886;151.198;2022-07-06T11:52:33;15.60;99.90
25991;DHT22;13779;-33.886;151.198;2022-07-06T11:55:03;15.60;99.90
25991;DHT22;13779;-33.886;151.198;2022-07-06T11:57:34;15.60;99.90
25991;DHT22;13779;-33.886;151.198;2022-07-06T12:00:05;15.50;99.90
25991;DHT22;13779;-33.886;151.198;2022-07-06T12:02:35;15.50;99.90
25991;DHT22;13779;-33.886;151.198;2022-07-06T12:05:06;15.50;99.90
25991;DHT22;13779;-33.886;151.198;2022-07-06T12:07:36;15.50;99.90
25991;DHT22;13779;-33.886;151.198;2022-07-06T12:10:07;15.50;99.90
25991;DHT22;13779;-33.886;151.198;2022-07-06T12:12:38;15.50;99.90
25991;DHT22;13779;-33.886;151.198;2022-07-06T12:15:08;15.40;99.90
25991;DHT22;13779;-33.886;151.198;2022-07-06T12:17:38;15.40;99.90
25991;DHT22;13779;-33.886;151.198;2022-07-06T12:20:12;15.40;99.90
25991;DHT22;13779;-33.886;151.198;2022-07-06T12:22:43;15.40;99.90
25991;DHT22;13779;-33.886;151.198;2022-07-06T12:25:30;15.40;99.90
25991;DHT22;13779;-33.886;151.198;2022-07-06T12:28:00;15.40;99.90
25991;DHT22;13779;-33.886;151.198;2022-07-06T12:30:31;15.40;99.90
25991;DHT22;13779;-33.886;151.198;2022-07-06T12:33:16;15.20;99.90
25991;DHT22;13779;-33.886;151.198;2022-07-06T12:35:50;15.20;99.90
25991;DHT22;13779;-33.886;151.198;2022-07-06T12:38:24;15.20;99.90
25991;DHT22;13779;-33.886;151.198;2022-07-06T12:40:55;15.10;99.90
25991;DHT22;13779;-33.886;151.198;2022-07-06T12:43:41;15.10;99.90
25991;DHT22;13779;-33.886;151.198;2022-07-06T12:46:30;15.10;99.90
25991;DHT22;13779;-33.886;151.198;2022-07-06T12:49:03;15.00;99.90
25991;DHT22;13779;-33.886;151.198;2022-07-06T12:51:51;15.00;99.90
25991;DHT22;13779;-33.886;151.198;2022-07-06T12:54:24;15.00;99.90
25991;DHT22;13779;-33.886;151.198;2022-07-06T12:57:13;15.00;99.90
25991;DHT22;13779;-33.886;151.198;2022-07-06T13:02:25;15.00;99.90
25991;DHT22;13779;-33.886;151.198;2022-07-06T13:05:17;15.00;99.90
25991;DHT22;13779;-33.886;151.198;2022-07-06T13:07:48;15.00;99.90
25991;DHT22;13779;-33.886;151.198;2022-07-06T13:10:18;15.00;99.90
25991;DHT22;13779;-33.886;151.198;2022-07-06T13:12:50;15.00;99.90
25991;DHT22;13779;-33.886;151.198;2022-07-06T13:15:21;15.00;99.90
25991;DHT22;13779;-33.886;151.198;2022-07-06T13:17:51;14.90;99.90
25991;DHT22;13779;-33.886;151.198;2022-07-06T13:20:21;14.90;99.90
25991;DHT22;13779;-33.886;151.198;2022-07-06T13:22:51;14.90;99.90
25991;DHT22;13779;-33.886;151.198;2022-07-06T13:25:22;14.90;99.90
25991;DHT22;13779;-33.886;151.198;2022-07-06T13:27:52;14.90;99.90
25991;DHT22;13779;-33.886;151.198;2022-07-06T13:30:22;14.90;99.90
25991;DHT22;13779;-33.886;151.198;2022-07-06T13:32:52;14.90;99.90
25991;DHT22;13779;-33.886;151.198;2022-07-06T13:35:23;15.00;99.90
25991;DHT22;13779;-33.886;151.198;2022-07-06T13:37:53;15.00;99.90
25991;DHT22;13779;-33.886;151.198;2022-07-06T13:40:23;14.90;99.90
25991;DHT22;13779;-33.886;151.198;2022-07-06T13:42:53;15.00;99.90
25991;DHT22;13779;-33.886;151.198;2022-07-06T13:45:23;14.90;99.90
25991;DHT22;13779;-33.886;151.198;2022-07-06T13:47:54;14.90;99.90
25991;DHT22;13779;-33.886;151.198;2022-07-06T13:50:24;14.90;99.90
25991;DHT22;13779;-33.886;151.198;2022-07-06T13:52:59;14.90;99.90
25991;DHT22;13779;-33.886;151.198;2022-07-06T13:55:30;14.90;99.90
25991;DHT22;13779;-33.886;151.198;2022-07-06T13:58:00;14.90;99.90
25991;DHT22;13779;-33.886;151.198;2022-07-06T14:00:30;14.90;99.90
25991;DHT22;13779;-33.886;151.198;2022-07-06T14:03:02;14.90;99.90
25991;DHT22;13779;-33.886;151.198;2022-07-06T14:05:32;14.90;99.90
25991;DHT22;13779;-33.886;151.198;2022-07-06T14:08:03;14.80;99.90
25991;DHT22;13779;-33.886;151.198;2022-07-06T14:10:33;14.90;99.90
25991;DHT22;13779;-33.886;151.198;2022-07-06T14:13:04;14.80;99.90
25991;DHT22;13779;-33.886;151.198;2022-07-06T14:15:34;14.80;99.90
25991;DHT22;13779;-33.886;151.198;2022-07-06T14:18:05;14.80;99.90
25991;DHT22;13779;-33.886;151.198;2022-07-06T14:20:36;14.80;99.90
25991;DHT22;13779;-33.886;151.198;2022-07-06T14:23:06;14.80;99.90
25991;DHT22;13779;-33.886;151.198;2022-07-06T14:25:37;14.80;99.90
25991;DHT22;13779;-33.886;151.198;2022-07-06T14:28:08;14.80;99.90
25991;DHT22;13779;-33.886;151.198;2022-07-06T14:30:38;14.80;99.90
25991;DHT22;13779;-33.886;151.198;2022-07-06T14:33:09;14.80;99.90
25991;DHT22;13779;-33.886;151.198;2022-07-06T14:35:50;14.80;99.90
25991;DHT22;13779;-33.886;151.198;2022-07-06T14:38:22;14.80;99.90
25991;DHT22;13779;-33.886;151.198;2022-07-06T14:40:53;14.80;99.90
25991;DHT22;13779;-33.886;151.198;2022-07-06T14:43:23;14.80;99.90
25991;DHT22;13779;-33.886;151.198;2022-07-06T14:45:54;14.80;99.90
25991;DHT22;13779;-33.886;151.198;2022-07-06T14:48:24;14.80;99.90
25991;DHT22;13779;-33.886;151.198;2022-07-06T14:50:55;14.80;99.90
25991;DHT22;13779;-33.886;151.198;2022-07-06T14:53:27;14.80;99.90
25991;DHT22;13779;-33.886;151.198;2022-07-06T14:55:57;14.80;99.90
25991;DHT22;13779;-33.886;151.198;2022-07-06T14:58:27;14.80;99.90
25991;DHT22;13779;-33.886;151.198;2022-07-06T15:00:58;14.80;99.90
25991;DHT22;13779;-33.886;151.198;2022-07-06T15:03:28;14.80;99.90
25991;DHT22;13779;-33.886;151.198;2022-07-06T15:05:58;14.80;99.90
25991;DHT22;13779;-33.886;151.198;2022-07-06T15:08:30;14.80;99.90
25991;DHT22;13779;-33.886;151.198;2022-07-06T15:11:00;14.80;99.90
25991;DHT22;13779;-33.886;151.198;2022-07-06T15:13:30;14.80;99.90
25991;DHT22;13779;-33.886;151.198;2022-07-06T15:16:00;14.80;99.90
25991;DHT22;13779;-33.886;151.198;2022-07-06T15:18:31;14.80;99.90
25991;DHT22;13779;-33.886;151.198;2022-07-06T15:21:01;14.80;99.90
25991;DHT22;13779;-33.886;151.198;2022-07-06T15:23:32;14.80;99.90
25991;DHT22;13779;-33.886;151.198;2022-07-06T15:26:03;14.80;99.90
25991;DHT22;13779;-33.886;151.198;2022-07-06T15:28:34;14.80;99.90
25991;DHT22;13779;-33.886;151.198;2022-07-06T15:31:04;14.80;99.90
25991;DHT22;13779;-33.886;151.198;2022-07-06T15:33:34;14.90;99.90
25991;DHT22;13779;-33.886;151.198;2022-07-06T15:36:05;14.90;99.90